createdAt,value
2019-02-06T00:01:07.907Z,-3.50
2019-02-06T00:03:37.468Z,-3.50
2019-02-06T00:06:07.155Z,-3.50
2019-02-06T00:08:36.894Z,-3.50
2019-02-06T00:11:06.955Z,-3.50
2019-02-06T00:13:36.161Z,-3.50
2019-02-06T00:16:06.013Z,-3.50
2019-02-06T00:18:35.517Z,-3.50
2019-02-06T00:21:04.838Z,-3.50
2019-02-06T00:23:34.110Z,-3.50
2019-02-06T00:26:03.419Z,-3.50
2019-02-06T00:28:32.962Z,-3.50
2019-02-06T00:31:02.780Z,-3.60
2019-02-06T00:33:32.645Z,-3.60
2019-02-06T00:36:02.108Z,-3.60
2019-02-06T00:38:31.619Z,-3.60
2019-02-06T00:41:00.819Z,-3.60
2019-02-06T00:43:30.684Z,-3.60
2019-02-06T00:46:00.188Z,-3.60
2019-02-06T00:48:29.382Z,-3.60
2019-02-06T00:50:58.896Z,-3.60
2019-02-06T00:53:28.364Z,-3.60
2019-02-06T00:55:57.883Z,-3.50
2019-02-06T00:58:27.451Z,-3.60
2019-02-06T01:00:57.045Z,-3.60
2019-02-06T01:03:26.779Z,-3.60
2019-02-06T01:05:56.222Z,-3.60
2019-02-06T01:08:25.419Z,-3.60
2019-02-06T01:10:54.659Z,-3.60
2019-02-06T01:13:24.211Z,-3.60
2019-02-06T01:15:53.377Z,-3.60
2019-02-06T01:18:23.078Z,-3.60
2019-02-06T01:20:52.566Z,-3.60
2019-02-06T01:23:22.119Z,-3.60
2019-02-06T01:25:51.431Z,-3.60
2019-02-06T01:28:21.739Z,-3.60
2019-02-06T01:30:55.562Z,-3.60
2019-02-06T01:33:24.687Z,-3.60
2019-02-06T01:35:54.471Z,-3.70
2019-02-06T01:38:23.666Z,-3.70
2019-02-06T01:40:53.169Z,-3.70
2019-02-06T01:43:22.566Z,-3.70
2019-02-06T01:45:52.147Z,-3.80
2019-02-06T01:48:21.279Z,-3.80
2019-02-06T01:50:50.593Z,-3.80
2019-02-06T01:53:19.873Z,-3.80
2019-02-06T01:55:49.404Z,-3.80
2019-02-06T01:58:19.172Z,-3.80
2019-02-06T02:00:48.411Z,-3.90
2019-02-06T02:03:17.639Z,-3.90
2019-02-06T02:05:46.810Z,-3.80
2019-02-06T02:08:15.950Z,-3.90
2019-02-06T02:10:45.095Z,-3.90
2019-02-06T02:13:14.611Z,-3.90
2019-02-06T02:15:44.041Z,-3.90
2019-02-06T02:18:13.598Z,-3.90
2019-02-06T02:20:43.083Z,-4.00
2019-02-06T02:23:12.254Z,-4.00
2019-02-06T02:25:41.419Z,-4.00
2019-02-06T02:28:10.934Z,-4.00
2019-02-06T02:30:44.211Z,-4.00
2019-02-06T02:33:13.999Z,-4.00
2019-02-06T02:35:43.213Z,-4.10
2019-02-06T02:38:12.718Z,-4.10
2019-02-06T02:40:42.140Z,-4.10
2019-02-06T02:43:11.604Z,-4.10
2019-02-06T02:45:41.495Z,-4.10
2019-02-06T02:48:11.290Z,-4.10
2019-02-06T02:50:40.535Z,-4.10
2019-02-06T02:53:10.551Z,-4.10
2019-02-06T02:55:40.072Z,-4.10
2019-02-06T02:58:10.044Z,-4.10
2019-02-06T03:00:57.259Z,-4.20
2019-02-06T03:03:37.534Z,-4.20
2019-02-06T03:06:07.036Z,-4.20
2019-02-06T03:08:36.590Z,-4.30
2019-02-06T03:11:06.231Z,-4.30
2019-02-06T03:13:36.264Z,-4.30
2019-02-06T03:16:05.511Z,-4.30
2019-02-06T03:18:35.284Z,-4.30
2019-02-06T03:21:05.104Z,-4.30
2019-02-06T03:23:34.314Z,-4.30
2019-02-06T03:26:04.198Z,-4.30
2019-02-06T03:28:33.626Z,-4.30
2019-02-06T03:31:03.661Z,-4.30
2019-02-06T03:33:33.133Z,-4.30
2019-02-06T03:36:02.580Z,-4.30
2019-02-06T03:38:32.056Z,-4.30
2019-02-06T03:41:01.300Z,-4.30
2019-02-06T03:43:30.775Z,-4.30
2019-02-06T03:46:00.303Z,-4.30
2019-02-06T03:48:29.707Z,-4.40
2019-02-06T03:50:58.943Z,-4.40
2019-02-06T03:53:28.341Z,-4.40
2019-02-06T03:55:58.111Z,-4.40
2019-02-06T03:58:27.870Z,-4.40
2019-02-06T04:00:57.183Z,-4.50
2019-02-06T04:03:26.780Z,-4.40
2019-02-06T04:05:56.284Z,-4.50
2019-02-06T04:08:25.494Z,-4.50
2019-02-06T04:10:55.014Z,-4.50
2019-02-06T04:13:24.556Z,-4.50
2019-02-06T04:15:53.796Z,-4.50
2019-02-06T04:18:23.039Z,-4.60
2019-02-06T04:20:52.829Z,-4.50
2019-02-06T04:23:22.040Z,-4.50
2019-02-06T04:25:51.283Z,-4.50
2019-02-06T04:28:20.493Z,-4.60
2019-02-06T04:30:50.011Z,-4.60
2019-02-06T04:33:19.500Z,-4.60
2019-02-06T04:35:48.993Z,-4.60
2019-02-06T04:38:18.478Z,-4.70
2019-02-06T04:40:47.990Z,-4.70
2019-02-06T04:43:17.382Z,-4.70
2019-02-06T04:45:47.091Z,-4.70
2019-02-06T04:48:16.487Z,-4.70
2019-02-06T04:50:46.523Z,-4.80
2019-02-06T04:53:16.136Z,-4.80
2019-02-06T04:55:45.656Z,-4.80
2019-02-06T04:58:14.863Z,-4.80
2019-02-06T05:00:44.376Z,-4.90
2019-02-06T05:03:14.440Z,-4.90
2019-02-06T05:05:44.044Z,-4.90
2019-02-06T05:08:13.599Z,-5.00
2019-02-06T05:10:42.839Z,-5.00
2019-02-06T05:13:12.368Z,-5.00
2019-02-06T05:15:42.168Z,-5.00
2019-02-06T05:18:11.894Z,-5.10
2019-02-06T05:20:41.635Z,-5.10
2019-02-06T05:23:11.342Z,-5.10
2019-02-06T05:25:40.552Z,-5.10
2019-02-06T05:28:10.916Z,-5.10
2019-02-06T05:30:40.128Z,-5.10
2019-02-06T05:33:09.581Z,-5.10
2019-02-06T05:35:38.792Z,-5.20
2019-02-06T05:38:09.867Z,-5.20
2019-02-06T05:40:40.163Z,-5.20
2019-02-06T05:43:12.539Z,-5.20
2019-02-06T05:45:41.688Z,-5.20
2019-02-06T05:48:10.943Z,-5.20
2019-02-06T05:50:42.684Z,-5.20
2019-02-06T05:53:12.892Z,-5.20
2019-02-06T05:55:42.189Z,-5.20
2019-02-06T05:58:11.776Z,-5.30
2019-02-06T06:00:45.707Z,-5.20
2019-02-06T06:03:15.173Z,-5.30
2019-02-06T06:05:44.754Z,-5.30
2019-02-06T06:08:14.017Z,-5.30
2019-02-06T06:10:43.496Z,-5.30
2019-02-06T06:13:13.581Z,-5.30
2019-02-06T06:15:42.795Z,-5.30
2019-02-06T06:18:12.078Z,-5.30
2019-02-06T06:20:41.543Z,-5.30
2019-02-06T06:23:10.986Z,-5.30
2019-02-06T06:25:40.456Z,-5.30
2019-02-06T06:28:09.632Z,-5.30
2019-02-06T06:30:39.124Z,-5.20
2019-02-06T06:33:08.668Z,-5.20
2019-02-06T06:35:37.875Z,-5.20
2019-02-06T06:38:08.014Z,-5.20
2019-02-06T06:40:37.475Z,-5.20
2019-02-06T06:43:06.773Z,-5.20
2019-02-06T06:45:36.303Z,-5.20
2019-02-06T06:48:05.752Z,-5.30
2019-02-06T06:50:35.010Z,-5.30
2019-02-06T06:53:06.347Z,-5.30
2019-02-06T06:55:35.490Z,-5.20
2019-02-06T06:58:05.384Z,-5.20
2019-02-06T07:00:38.184Z,-5.20
2019-02-06T07:03:07.755Z,-5.10
2019-02-06T07:05:36.887Z,-5.10
2019-02-06T07:08:10.131Z,-5.10
2019-02-06T07:10:37.197Z,-5.10
2019-02-06T07:13:06.712Z,-5.10
2019-02-06T07:15:36.335Z,-5.00
2019-02-06T07:18:05.871Z,-5.00
2019-02-06T07:20:35.011Z,-4.80
2019-02-06T07:23:04.558Z,-4.80
2019-02-06T07:25:34.095Z,-4.80
2019-02-06T07:28:03.613Z,-4.80
2019-02-06T07:30:34.775Z,-4.80
2019-02-06T07:33:04.141Z,-4.80
2019-02-06T07:35:33.438Z,-4.80
2019-02-06T07:38:02.685Z,-4.70
2019-02-06T07:40:32.160Z,-4.70
2019-02-06T07:43:01.659Z,-4.70
2019-02-06T07:45:31.128Z,-4.60
2019-02-06T07:48:00.371Z,-4.60
2019-02-06T07:50:31.223Z,-4.60
2019-02-06T07:53:00.718Z,-4.50
2019-02-06T07:55:30.023Z,-4.50
2019-02-06T07:57:59.634Z,-4.40
2019-02-06T08:00:28.842Z,-4.40
2019-02-06T08:02:58.739Z,-4.40
2019-02-06T08:05:28.178Z,-4.30
2019-02-06T08:07:57.731Z,-4.20
2019-02-06T08:10:29.214Z,-4.20
2019-02-06T08:12:58.751Z,-4.10
2019-02-06T08:15:27.959Z,-4.00
2019-02-06T08:17:57.203Z,-3.90
2019-02-06T08:20:26.531Z,-3.90
2019-02-06T08:22:56.348Z,-3.80
2019-02-06T08:25:25.600Z,-3.80
2019-02-06T08:27:54.978Z,-3.70
2019-02-06T08:30:29.514Z,-3.70
2019-02-06T08:32:58.855Z,-3.60
2019-02-06T08:35:28.067Z,-3.50
2019-02-06T08:37:57.382Z,-3.40
2019-02-06T08:40:27.675Z,-3.40
2019-02-06T08:42:56.802Z,-3.30
2019-02-06T08:45:25.966Z,-3.20
2019-02-06T08:47:55.473Z,-3.10
2019-02-06T08:50:25.239Z,-3.00
2019-02-06T08:52:54.835Z,-2.90
2019-02-06T08:55:26.448Z,-2.80
2019-02-06T08:57:55.663Z,-2.70
2019-02-06T09:00:28.516Z,-2.60
2019-02-06T09:02:57.995Z,-2.50
2019-02-06T09:05:27.710Z,-2.40
2019-02-06T09:07:56.912Z,-2.30
2019-02-06T09:10:26.267Z,-2.10
2019-02-06T09:12:55.817Z,-2.10
2019-02-06T09:15:27.438Z,-2.00
2019-02-06T09:17:56.358Z,-1.90
2019-02-06T09:20:26.580Z,-1.80
2019-02-06T09:22:56.005Z,-1.70
2019-02-06T09:25:25.411Z,-1.60
2019-02-06T09:27:54.654Z,-1.50
2019-02-06T09:30:25.896Z,-1.30
2019-02-06T09:32:55.883Z,-1.20
2019-02-06T09:35:25.733Z,-1.10
2019-02-06T09:37:55.044Z,-0.90
2019-02-06T09:40:26.199Z,-0.80
2019-02-06T09:42:55.705Z,-0.70
2019-02-06T09:45:25.154Z,-0.60
2019-02-06T09:47:54.905Z,-0.40
2019-02-06T09:50:29.311Z,-0.20
2019-02-06T09:52:59.044Z,-0.10
2019-02-06T09:55:28.384Z,0.10
2019-02-06T09:57:58.183Z,0.20
2019-02-06T10:00:31.947Z,0.30
2019-02-06T10:03:01.560Z,0.40
2019-02-06T10:05:31.191Z,0.50
2019-02-06T10:08:00.315Z,0.60
2019-02-06T10:10:29.878Z,0.60
2019-02-06T10:12:59.077Z,0.70
2019-02-06T10:15:30.384Z,0.80
2019-02-06T10:18:00.777Z,0.80
2019-02-06T10:20:38.271Z,0.80
2019-02-06T10:23:08.604Z,0.90
2019-02-06T10:25:38.243Z,0.90
2019-02-06T10:28:07.468Z,1.00
2019-02-06T10:30:46.817Z,1.10
2019-02-06T10:33:18.624Z,1.20
2019-02-06T10:35:47.131Z,1.30
2019-02-06T10:38:16.654Z,1.40
2019-02-06T10:40:46.111Z,1.40
2019-02-06T10:43:15.581Z,1.50
2019-02-06T10:45:46.561Z,1.50
2019-02-06T10:48:16.568Z,1.50
2019-02-06T10:50:49.871Z,1.60
2019-02-06T10:53:19.471Z,1.60
2019-02-06T10:55:48.912Z,1.60
2019-02-06T10:58:19.341Z,1.60
2019-02-06T11:00:56.785Z,1.50
2019-02-06T11:03:25.986Z,1.50
2019-02-06T11:05:55.839Z,1.60
2019-02-06T11:08:25.492Z,1.60
2019-02-06T11:10:55.805Z,1.60
2019-02-06T11:13:25.616Z,1.70
2019-02-06T11:15:54.778Z,1.80
2019-02-06T11:18:24.396Z,1.90
2019-02-06T11:20:53.895Z,1.90
2019-02-06T11:23:23.640Z,2.00
2019-02-06T11:25:53.344Z,2.00
2019-02-06T11:28:22.547Z,2.10
2019-02-06T11:30:52.059Z,2.20
2019-02-06T11:33:21.546Z,2.30
2019-02-06T11:35:51.362Z,2.30
2019-02-06T11:38:20.540Z,2.40
2019-02-06T11:40:50.045Z,2.40
2019-02-06T11:43:19.542Z,2.40
2019-02-06T11:45:48.848Z,2.40
2019-02-06T11:48:18.314Z,2.40
2019-02-06T11:50:47.908Z,2.50
2019-02-06T11:53:19.841Z,2.60
2019-02-06T11:55:49.995Z,2.70
2019-02-06T11:58:19.575Z,2.70
2019-02-06T12:01:04.815Z,2.90
2019-02-06T12:03:33.964Z,2.90
2019-02-06T12:06:03.553Z,3.00
2019-02-06T12:08:32.945Z,3.00
2019-02-06T12:11:02.459Z,3.10
2019-02-06T12:13:31.670Z,3.10
2019-02-06T12:16:01.367Z,3.20
2019-02-06T12:18:30.603Z,3.20
2019-02-06T12:21:00.340Z,3.30
2019-02-06T12:23:32.239Z,3.40
2019-02-06T12:26:01.854Z,3.40
2019-02-06T12:28:31.651Z,3.50
2019-02-06T12:31:00.999Z,3.50
2019-02-06T12:33:30.471Z,3.60
2019-02-06T12:36:00.056Z,3.60
2019-02-06T12:38:29.840Z,3.70
2019-02-06T12:40:59.070Z,3.70
2019-02-06T12:43:28.609Z,3.70
2019-02-06T12:45:58.188Z,3.80
2019-02-06T12:48:27.661Z,3.80
2019-02-06T12:50:56.891Z,3.90
2019-02-06T12:53:26.311Z,3.90
2019-02-06T12:55:57.459Z,4.00
2019-02-06T12:58:27.208Z,4.00
2019-02-06T13:00:56.447Z,4.10
2019-02-06T13:03:25.690Z,4.10
2019-02-06T13:05:55.202Z,4.10
2019-02-06T13:08:24.335Z,4.10
2019-02-06T13:10:53.502Z,4.10
2019-02-06T13:13:22.707Z,4.20
2019-02-06T13:15:52.488Z,4.20
2019-02-06T13:18:24.260Z,4.20
2019-02-06T13:20:53.440Z,4.30
2019-02-06T13:23:22.990Z,4.30
2019-02-06T13:25:52.350Z,4.30
2019-02-06T13:28:21.547Z,4.40
2019-02-06T13:30:51.055Z,4.40
2019-02-06T13:33:20.546Z,4.50
2019-02-06T13:35:50.748Z,4.40
2019-02-06T13:38:23.102Z,4.50
2019-02-06T13:40:51.745Z,4.50
2019-02-06T13:43:20.949Z,4.50
2019-02-06T13:45:50.480Z,4.60
2019-02-06T13:48:20.593Z,4.60
2019-02-06T13:50:50.387Z,4.60
2019-02-06T13:53:19.925Z,4.70
2019-02-06T13:55:49.909Z,4.70
2019-02-06T13:58:20.565Z,4.70
2019-02-06T14:00:52.254Z,4.70
2019-02-06T14:03:20.991Z,4.70
2019-02-06T14:05:50.222Z,4.70
2019-02-06T14:08:19.762Z,4.70
2019-02-06T14:10:58.445Z,4.70
2019-02-06T14:13:20.343Z,4.70
2019-02-06T14:15:50.079Z,4.70
2019-02-06T14:18:20.028Z,4.70
2019-02-06T14:20:53.146Z,4.80
2019-02-06T14:23:26.423Z,4.80
2019-02-06T14:26:23.239Z,4.80
2019-02-06T14:29:35.675Z,4.80
2019-02-06T14:33:01.167Z,4.80
2019-02-06T14:35:37.034Z,4.80
2019-02-06T14:38:37.250Z,4.80
2019-02-06T14:41:31.183Z,4.70
2019-02-06T14:44:26.952Z,4.70
2019-02-06T14:47:33.743Z,4.70
2019-02-06T14:50:49.474Z,4.80
2019-02-06T14:53:47.307Z,4.90
2019-02-06T14:56:51.007Z,5.00
2019-02-06T14:59:49.719Z,5.00
2019-02-06T15:02:59.087Z,5.00
2019-02-06T15:06:12.206Z,4.90
2019-02-06T15:09:16.832Z,4.90
2019-02-06T15:12:36.197Z,4.90
2019-02-06T15:15:24.268Z,4.90
2019-02-06T15:18:29.744Z,4.80
2019-02-06T15:21:26.495Z,4.80
2019-02-06T15:24:38.443Z,4.90
2019-02-06T15:27:51.719Z,4.90
2019-02-06T15:30:56.346Z,4.90
2019-02-06T15:33:53.530Z,4.80
2019-02-06T15:36:44.283Z,4.90
2019-02-06T15:39:40.570Z,4.90
2019-02-06T15:42:34.451Z,4.90
2019-02-06T15:45:46.423Z,4.80
2019-02-06T15:48:41.815Z,4.70
2019-02-06T15:51:27.728Z,4.60
2019-02-06T15:54:45.771Z,4.50
2019-02-06T15:57:54.748Z,4.50
2019-02-06T16:00:59.219Z,4.40
2019-02-06T16:04:23.523Z,4.40
2019-02-06T16:07:23.336Z,4.30
2019-02-06T16:10:26.507Z,4.20
2019-02-06T16:13:35.885Z,4.20
2019-02-06T16:17:04.465Z,4.10
2019-02-06T16:20:19.565Z,4.00
2019-02-06T16:23:16.317Z,3.90
2019-02-06T16:26:27.220Z,3.80
2019-02-06T16:29:17.214Z,3.70
2019-02-06T16:32:13.276Z,3.60
2019-02-06T16:34:54.878Z,3.50
2019-02-06T16:37:45.488Z,3.40
2019-02-06T16:40:52.347Z,3.30
2019-02-06T16:44:00.803Z,3.20
2019-02-06T16:47:03.654Z,3.10
2019-02-06T16:49:48.850Z,3.00
2019-02-06T16:52:57.783Z,2.90
2019-02-06T16:56:00.264Z,2.80
2019-02-06T16:58:49.419Z,2.70
2019-02-06T17:02:01.852Z,2.60
2019-02-06T17:05:31.159Z,2.50
2019-02-06T17:08:30.207Z,2.40
2019-02-06T17:12:04.052Z,2.30
2019-02-06T17:15:07.763Z,2.20
2019-02-06T17:18:21.172Z,2.10
2019-02-06T17:21:26.436Z,2.00
2019-02-06T17:24:24.919Z,1.90
2019-02-06T17:27:23.076Z,1.80
2019-02-06T17:30:36.684Z,1.70
2019-02-06T17:33:33.167Z,1.60
2019-02-06T17:36:24.678Z,1.50
2019-02-06T17:39:37.497Z,1.40
2019-02-06T17:42:31.735Z,1.40
2019-02-06T17:45:20.791Z,1.30
2019-02-06T17:48:09.351Z,1.20
2019-02-06T17:51:20.790Z,1.20
2019-02-06T17:54:15.138Z,1.10
2019-02-06T17:56:44.287Z,1.00
2019-02-06T17:59:13.610Z,0.90
2019-02-06T18:01:49.014Z,0.90
2019-02-06T18:04:27.099Z,0.90
2019-02-06T18:06:56.615Z,0.80
2019-02-06T18:09:26.107Z,0.70
2019-02-06T18:11:55.442Z,0.70
2019-02-06T18:14:24.744Z,0.60
2019-02-06T18:17:06.125Z,0.60
2019-02-06T18:19:41.959Z,0.50
2019-02-06T18:22:11.528Z,0.50
2019-02-06T18:24:41.151Z,0.40
2019-02-06T18:27:11.630Z,0.40
2019-02-06T18:29:41.190Z,0.40
2019-02-06T18:32:11.022Z,0.30
2019-02-06T18:34:41.127Z,0.30
2019-02-06T18:37:10.884Z,0.30
2019-02-06T18:39:41.025Z,0.20
2019-02-06T18:42:10.643Z,0.20
2019-02-06T18:44:39.955Z,0.10
2019-02-06T18:47:09.162Z,0.10
2019-02-06T18:49:38.386Z,0.00
2019-02-06T18:52:08.068Z,0.00
2019-02-06T18:54:37.327Z,-0.10
2019-02-06T18:57:06.852Z,-0.10
2019-02-06T18:59:36.231Z,-0.20
2019-02-06T19:02:05.973Z,-0.20
2019-02-06T19:04:35.233Z,-0.30
2019-02-06T19:07:04.534Z,-0.30
2019-02-06T19:09:34.007Z,-0.40
2019-02-06T19:12:03.669Z,-0.40
2019-02-06T19:14:32.879Z,-0.40
2019-02-06T19:17:02.128Z,-0.50
2019-02-06T19:19:31.599Z,-0.50
2019-02-06T19:22:00.839Z,-0.50
2019-02-06T19:24:30.092Z,-0.50
2019-02-06T19:26:59.572Z,-0.60
2019-02-06T19:29:29.291Z,-0.60
2019-02-06T19:31:58.503Z,-0.60
2019-02-06T19:34:28.268Z,-0.70
2019-02-06T19:36:57.513Z,-0.70
2019-02-06T19:39:27.031Z,-0.70
2019-02-06T19:41:56.251Z,-0.80
2019-02-06T19:44:25.717Z,-0.80
2019-02-06T19:46:55.203Z,-0.90
2019-02-06T19:49:24.496Z,-0.90
2019-02-06T19:51:53.695Z,-0.90
2019-02-06T19:54:23.204Z,-1.00
2019-02-06T19:56:52.999Z,-1.00
2019-02-06T19:59:22.510Z,-1.00
2019-02-06T20:01:51.767Z,-1.10
2019-02-06T20:04:21.234Z,-1.10
2019-02-06T20:06:50.754Z,-1.10
2019-02-06T20:09:20.295Z,-1.10
2019-02-06T20:11:49.848Z,-1.20
2019-02-06T20:14:19.063Z,-1.20
2019-02-06T20:16:48.599Z,-1.20
2019-02-06T20:19:20.486Z,-1.20
2019-02-06T20:21:48.933Z,-1.30
2019-02-06T20:24:18.243Z,-1.30
2019-02-06T20:26:47.453Z,-1.40
2019-02-06T20:29:16.796Z,-1.40
2019-02-06T20:31:46.068Z,-1.40
2019-02-06T20:34:15.296Z,-1.50
2019-02-06T20:36:45.170Z,-1.50
2019-02-06T20:39:14.416Z,-1.50
2019-02-06T20:41:43.903Z,-1.50
2019-02-06T20:44:13.157Z,-1.50
2019-02-06T20:46:42.628Z,-1.60
2019-02-06T20:49:11.982Z,-1.60
2019-02-06T20:51:41.739Z,-1.60
2019-02-06T20:54:11.472Z,-1.70
2019-02-06T20:56:40.707Z,-1.70
2019-02-06T20:59:09.982Z,-1.70
2019-02-06T21:01:39.455Z,-1.80
2019-02-06T21:04:09.301Z,-1.80
2019-02-06T21:06:39.136Z,-1.80
2019-02-06T21:09:13.644Z,-1.90
2019-02-06T21:11:42.895Z,-1.90
2019-02-06T21:14:12.132Z,-1.90
2019-02-06T21:16:41.375Z,-1.90
2019-02-06T21:19:10.610Z,-1.90
2019-02-06T21:21:40.398Z,-2.00
2019-02-06T21:24:10.147Z,-2.00
2019-02-06T21:26:39.610Z,-2.00
2019-02-06T21:29:08.826Z,-2.00
2019-02-06T21:31:38.063Z,-2.00
2019-02-06T21:34:07.312Z,-2.10
2019-02-06T21:36:36.555Z,-2.10
2019-02-06T21:39:09.230Z,-2.10
2019-02-06T21:41:38.730Z,-2.10
2019-02-06T21:44:07.871Z,-2.10
2019-02-06T21:46:37.130Z,-2.20
2019-02-06T21:49:06.623Z,-2.20
2019-02-06T21:51:36.102Z,-2.20
2019-02-06T21:54:05.742Z,-2.20
2019-02-06T21:56:35.218Z,-2.20
2019-02-06T21:59:05.710Z,-2.30
2019-02-06T22:01:35.226Z,-2.30
2019-02-06T22:04:04.915Z,-2.30
2019-02-06T22:06:34.445Z,-2.30
2019-02-06T22:09:05.487Z,-2.30
2019-02-06T22:11:35.096Z,-2.30
2019-02-06T22:14:05.085Z,-2.30
2019-02-06T22:16:34.396Z,-2.30
2019-02-06T22:19:03.916Z,-2.40
2019-02-06T22:21:33.743Z,-2.40
2019-02-06T22:24:02.997Z,-2.40
2019-02-06T22:26:33.413Z,-2.40
2019-02-06T22:29:02.903Z,-2.40
2019-02-06T22:31:32.147Z,-2.40
2019-02-06T22:34:01.955Z,-2.50
2019-02-06T22:36:32.031Z,-2.50
2019-02-06T22:39:01.296Z,-2.50
2019-02-06T22:41:30.841Z,-2.50
2019-02-06T22:44:06.740Z,-2.50
2019-02-06T22:46:31.583Z,-2.50
2019-02-06T22:49:01.074Z,-2.60
2019-02-06T22:51:31.481Z,-2.60
2019-02-06T22:54:00.999Z,-2.60
2019-02-06T22:56:30.218Z,-2.60
2019-02-06T22:58:59.696Z,-2.60
2019-02-06T23:01:44.511Z,-2.70
2019-02-06T23:04:14.311Z,-2.70
2019-02-06T23:06:43.515Z,-2.70
2019-02-06T23:09:12.884Z,-2.70
2019-02-06T23:11:43.083Z,-2.80
2019-02-06T23:14:17.800Z,-2.80
2019-02-06T23:16:44.294Z,-2.80
2019-02-06T23:19:14.271Z,-2.80
2019-02-06T23:21:43.447Z,-2.80
2019-02-06T23:24:12.923Z,-2.80
2019-02-06T23:26:42.426Z,-2.90
2019-02-06T23:29:11.946Z,-2.90
2019-02-06T23:31:41.651Z,-2.90
2019-02-06T23:34:11.398Z,-2.90
2019-02-06T23:36:40.543Z,-2.90
2019-02-06T23:39:18.276Z,-3.00
2019-02-06T23:41:47.496Z,-3.00
2019-02-06T23:44:28.297Z,-3.00
2019-02-06T23:46:48.051Z,-3.00
2019-02-06T23:49:17.222Z,-3.00
2019-02-06T23:51:46.393Z,-3.00
2019-02-06T23:54:15.796Z,-3.00
2019-02-06T23:56:45.057Z,-3.00
2019-02-06T23:59:14.545Z,-3.00
